Crete, IL (60417)

1:49 AM CST on December 08, 2016 (GMT -0600)
| | Change Station

Elev -9999 ft 0.00 °N, 0.00 °E | Updated 6 minutes ago

Overcast
Overcast
72 °F
Feels Like 72 °F
N
3
Wind Variable Wind from South
Gusts mph

Today
High -- | Low -- °F
--% Chance of Precip.
Yesterday
High -- | Low -- °F
Precip. -- in
Pressure 30.17 in
Visibility 10.0 miles
Clouds Overcast 2600 ft
Dew Point 63 °F
Humidity 73%
Rainfall --
Snow Depth Not available.
7:04 AM 4:20 PM
First Quarter, 61% visible
METAR KIGQ 080735Z AUTO 28016G23KT 10SM OVC026 M05/M09 A3017 RMK AO2 T10471086
Pressure 30.17 in
Visibility 10.0 miles
Clouds Overcast 2600 ft
Dew Point 63 °F
Humidity 73%
Rainfall --
Snow Depth Not available.
7:04 AM 4:20 PM
First Quarter, 61% visible
METAR KIGQ 080735Z AUTO 28016G23KT 10SM OVC026 M05/M09 A3017 RMK AO2 T10471086

10-Day Weather Forecast

Almanac

Astronomy

Dec. 08, 2016 Rise Set
Actual Time
Civil Twilight
Nautical Twilight
Astronomical Twilight
Moon
Length of Visible Light
Length of Day
Tomorrow will be .
, % of the Moon is Illuminated

Today's Extremes

State Highs State Lows

Community

WunderPhotos

Upload Photos

1,956,259 photos uploaded!

WunderBlog® & News

Nearby

Air Quality

  Air Quality AQ Index Pollutant
Not available.

Snow Depth

Station Depth Elevation

Earthquake Activity

City Distance Mag. Time & Date
Minimum magnitude displayed is 2.5.

Coastal Water Temperatures

Place Temperature

Stations

Nearby Weather Stations

Station Location Temp. Windchill Dew Point Humidity Wind Precip. Elev Updated Type
                   

Watches & Warnings

There are currently no watches in effect.